Time;durP1;ratioP1;P1;durP2;ratioP2;P2;SDS_P1;SDS_P2;PMS_P1;PMS_P2;Temp;Humidity;BMP_temperature;BMP_pressure;BME280_temperature;BME280_humidity;BME280_pressure;Samples;Min_cycle;Max_cycle;Signal;HPM_P1;HPM_P2
2023/01/26 00:00:47;;;;;;;17.40;11.60;;;19.50;99.90;;;;;;5094998;28;20093;-59
2023/01/26 00:03:13;;;;;;;15.45;11.18;;;19.50;99.90;;;;;;5095059;28;20484;-59
2023/01/26 00:05:39;;;;;;;14.75;10.48;;;19.50;99.90;;;;;;5094511;28;20039;-61
2023/01/26 00:08:05;;;;;;;15.98;10.40;;;19.50;99.90;;;;;;5094734;28;20424;-62
2023/01/26 00:10:31;;;;;;;15.73;11.45;;;19.50;99.90;;;;;;5093851;28;20388;-62
2023/01/26 00:12:57;;;;;;;16.80;11.13;;;19.40;99.90;;;;;;5094552;28;20016;-62
2023/01/26 00:15:23;;;;;;;17.75;10.77;;;19.50;99.90;;;;;;5094338;28;20035;-62
2023/01/26 00:17:51;;;;;;;17.38;10.75;;;19.40;99.90;;;;;;5080525;28;20034;-57
2023/01/26 00:20:17;;;;;;;15.70;11.13;;;19.40;99.90;;;;;;5076253;28;20527;-62
2023/01/26 00:22:43;;;;;;;17.80;11.07;;;19.40;99.90;;;;;;5073213;28;20044;-62
2023/01/26 00:25:09;;;;;;;20.65;11.02;;;19.40;99.90;;;;;;5074003;28;20484;-62
2023/01/26 00:27:35;;;;;;;16.40;11.32;;;19.40;99.90;;;;;;5094231;28;20020;-64
2023/01/26 00:30:02;;;;;;;19.20;12.38;;;19.40;99.90;;;;;;5094387;28;20137;-62
2023/01/26 00:32:28;;;;;;;17.25;11.38;;;19.40;99.90;;;;;;5094557;28;20047;-61
2023/01/26 00:34:53;;;;;;;15.65;10.57;;;19.40;99.90;;;;;;5087737;28;20531;-62
2023/01/26 00:37:19;;;;;;;18.50;10.77;;;19.40;99.90;;;;;;5073829;28;20025;-63
2023/01/26 00:39:45;;;;;;;16.60;11.88;;;19.30;99.90;;;;;;5089535;28;20035;-61
2023/01/26 00:42:12;;;;;;;14.88;11.13;;;19.30;99.90;;;;;;5092889;28;20094;-62
2023/01/26 00:44:40;;;;;;;15.45;10.75;;;19.30;99.90;;;;;;5072726;28;20503;-60
2023/01/26 00:47:07;;;;;;;;;;;19.30;99.90;;;;;;5085007;28;20028;-63
2023/01/26 00:49:33;;;;;;;18.33;12.07;;;19.30;99.90;;;;;;5094174;28;19973;-62
2023/01/26 00:51:59;;;;;;;17.20;11.27;;;19.30;99.90;;;;;;5093775;28;20484;-57
2023/01/26 00:54:26;;;;;;;17.10;11.35;;;19.30;99.90;;;;;;5093973;28;20164;-59
2023/01/26 00:56:53;;;;;;;21.07;10.63;;;19.30;99.90;;;;;;5094131;28;20020;-61
2023/01/26 00:59:18;;;;;;;15.35;11.43;;;19.20;99.90;;;;;;5093392;28;20356;-61
2023/01/26 01:01:44;;;;;;;14.70;10.32;;;19.20;99.90;;;;;;5092747;28;20546;-61
2023/01/26 01:04:10;;;;;;;14.77;10.63;;;19.20;99.90;;;;;;5093975;28;20044;-60
2023/01/26 01:06:36;;;;;;;15.60;10.57;;;19.20;99.90;;;;;;5093529;28;20107;-57
2023/01/26 01:09:02;;;;;;;15.45;10.60;;;19.20;99.90;;;;;;5093902;28;20023;-61
2023/01/26 01:11:27;;;;;;;17.45;10.82;;;19.20;99.90;;;;;;5093773;28;20420;-60
2023/01/26 01:13:53;;;;;;;18.73;11.32;;;19.20;99.90;;;;;;5091899;28;20383;-64
2023/01/26 01:16:19;;;;;;;17.30;11.13;;;19.10;99.90;;;;;;5093797;28;20372;-64
2023/01/26 01:18:45;;;;;;;16.08;10.38;;;19.10;99.90;;;;;;5076219;28;20028;-58
2023/01/26 01:21:16;;;;;;;16.08;10.63;;;19.10;99.90;;;;;;5072895;28;20017;-62
2023/01/26 01:23:43;;;;;;;14.88;10.07;;;19.10;99.90;;;;;;5093565;28;20024;-62
2023/01/26 01:26:09;;;;;;;14.88;10.23;;;19.10;99.90;;;;;;5093433;28;20051;-59
2023/01/26 01:28:36;;;;;;;16.27;9.82;;;19.10;99.90;;;;;;5091695;28;20030;-57
2023/01/26 01:31:06;;;;;;;17.15;10.00;;;19.00;99.90;;;;;;5093217;28;20012;-57
2023/01/26 01:33:32;;;;;;;16.52;10.38;;;19.00;99.90;;;;;;5093115;28;20035;-57
2023/01/26 01:36:05;;;;;;;15.40;10.35;;;19.00;99.90;;;;;;5092884;28;20023;-57
2023/01/26 01:38:31;;;;;;;12.80;8.90;;;19.00;99.90;;;;;;5093046;28;20023;-57
2023/01/26 01:40:57;;;;;;;12.95;8.90;;;19.00;99.90;;;;;;5092835;28;20387;-57
2023/01/26 01:43:24;;;;;;;16.23;10.82;;;19.00;99.90;;;;;;5091699;28;20107;-57
2023/01/26 01:45:51;;;;;;;13.57;9.63;;;19.00;99.90;;;;;;5093163;28;20027;-57
2023/01/26 01:48:26;;;;;;;12.65;9.25;;;18.90;99.90;;;;;;5092760;28;20035;-57
2023/01/26 01:50:56;;;;;;;15.05;9.85;;;18.90;99.90;;;;;;5091555;28;20031;-57
2023/01/26 01:53:35;;;;;;;13.35;9.27;;;18.90;99.90;;;;;;5092425;28;20100;-57
2023/01/26 01:56:07;;;;;;;16.08;9.77;;;18.90;99.90;;;;;;5092995;28;20028;-57
2023/01/26 01:58:36;;;;;;;14.05;8.95;;;18.80;99.90;;;;;;5091909;28;20035;-57
2023/01/26 02:01:02;;;;;;;14.23;9.45;;;18.80;99.90;;;;;;5089692;28;20039;-57
2023/01/26 02:03:29;;;;;;;14.90;9.50;;;18.80;99.90;;;;;;5091550;28;20036;-57
2023/01/26 02:06:11;;;;;;;13.85;9.05;;;18.80;99.90;;;;;;5092222;28;20054;-57
2023/01/26 02:08:42;;;;;;;12.20;7.85;;;18.80;99.90;;;;;;5092826;28;20027;-57
2023/01/26 02:11:29;;;;;;;11.88;8.82;;;18.80;99.90;;;;;;5092427;28;20479;-57
2023/01/26 02:13:56;;;;;;;15.10;9.25;;;18.70;99.90;;;;;;5092699;28;20099;-57
2023/01/26 02:16:22;;;;;;;13.15;8.57;;;18.70;99.90;;;;;;5091495;28;20076;-57
2023/01/26 02:18:48;;;;;;;13.68;8.65;;;18.70;99.90;;;;;;5092955;28;20038;-57
2023/01/26 02:21:20;;;;;;;10.43;8.02;;;18.70;99.90;;;;;;5092669;28;20075;-56
2023/01/26 02:24:05;;;;;;;12.30;8.30;;;18.70;99.90;;;;;;5092738;28;20028;-57
2023/01/26 02:26:35;;;;;;;12.80;8.07;;;18.70;99.90;;;;;;5092590;28;20028;-57
2023/01/26 02:29:03;;;;;;;13.70;8.95;;;18.60;99.90;;;;;;5092647;28;20379;-57
2023/01/26 02:31:30;;;;;;;10.88;7.82;;;18.60;99.90;;;;;;5091350;28;20016;-57
2023/01/26 02:33:56;;;;;;;12.27;7.80;;;18.60;99.90;;;;;;5092585;28;20035;-57
2023/01/26 02:36:24;;;;;;;10.65;7.35;;;18.60;99.90;;;;;;5092523;28;20027;-57
2023/01/26 02:39:25;;;;;;;10.40;7.93;;;18.60;99.90;;;;;;5092371;28;20472;-57
2023/01/26 02:44:40;;;;;;;10.43;7.55;;;18.60;99.90;;;;;;5089660;28;20051;-57
2023/01/26 02:47:17;;;;;;;10.85;7.65;;;18.60;99.90;;;;;;5092623;28;20099;-56
2023/01/26 02:49:46;;;;;;;10.57;7.65;;;18.60;99.90;;;;;;5092360;28;20099;-57
2023/01/26 02:52:14;;;;;;;10.57;7.40;;;18.50;99.90;;;;;;5092352;28;20051;-57
2023/01/26 02:57:25;;;;;;;10.27;6.82;;;18.50;99.90;;;;;;5092238;28;20035;-57
2023/01/26 02:59:51;;;;;;;9.33;7.00;;;18.50;99.90;;;;;;5092298;28;20020;-57
2023/01/26 03:02:17;;;;;;;10.80;6.85;;;18.50;99.90;;;;;;5092145;28;20024;-57
2023/01/26 03:04:43;;;;;;;12.93;7.72;;;18.50;99.90;;;;;;5092602;28;20087;-57
2023/01/26 03:07:09;;;;;;;10.43;7.18;;;18.50;99.90;;;;;;5095997;28;20047;-57
2023/01/26 03:09:35;;;;;;;11.95;7.22;;;18.40;99.90;;;;;;5096541;28;20024;-59
2023/01/26 03:12:02;;;;;;;12.07;6.82;;;18.40;99.90;;;;;;5096148;28;20043;-57
2023/01/26 03:14:28;;;;;;;9.32;6.40;;;18.40;99.90;;;;;;5096153;28;20020;-58
2023/01/26 03:16:54;;;;;;;7.97;6.20;;;18.40;99.90;;;;;;5096072;28;20016;-58
2023/01/26 03:27:43;;;;;;;9.50;6.22;;;18.40;99.90;;;;;;5095992;28;20385;-57
2023/01/26 03:30:09;;;;;;;9.23;6.13;;;18.30;99.90;;;;;;5096097;28;20028;-59
2023/01/26 03:32:35;;;;;;;10.40;6.78;;;18.30;99.90;;;;;;5095980;28;20026;-57
2023/01/26 03:35:01;;;;;;;8.95;6.43;;;18.30;99.90;;;;;;5094631;28;20446;-57
2023/01/26 03:37:27;;;;;;;8.75;6.15;;;18.30;99.90;;;;;;5094297;28;20069;-57
2023/01/26 03:56:31;;;;;;;10.13;6.25;;;18.20;99.90;;;;;;5095552;28;20121;-57
2023/01/26 03:59:07;;;;;;;10.48;6.30;;;18.20;99.90;;;;;;5095430;28;20421;-57
2023/01/26 04:01:37;;;;;;;8.52;6.05;;;18.20;99.90;;;;;;5094155;28;20028;-57
2023/01/26 04:09:35;;;;;;;8.18;5.93;;;18.20;99.90;;;;;;5095428;28;20031;-45
2023/01/26 04:12:02;;;;;;;8.82;5.95;;;18.20;99.90;;;;;;5095076;28;20101;-44
2023/01/26 04:22:44;;;;;;;9.63;5.72;;;18.10;99.90;;;;;;5094288;28;20031;-45
2023/01/26 04:25:18;;;;;;;7.38;5.13;;;18.10;99.90;;;;;;5094973;28;20035;-44
2023/01/26 04:27:44;;;;;;;9.38;5.80;;;18.10;99.90;;;;;;5094732;28;20117;-45
2023/01/26 04:30:12;;;;;;;8.02;5.63;;;18.10;99.90;;;;;;5094858;28;20020;-45
2023/01/26 04:32:38;;;;;;;;;;;18.10;99.90;;;;;;5095259;28;20417;-46
2023/01/26 04:35:05;;;;;;;9.35;6.25;;;18.10;99.90;;;;;;5094594;28;19908;-47
2023/01/26 04:37:32;;;;;;;7.80;5.88;;;18.10;99.90;;;;;;5094493;28;20027;-46
2023/01/26 04:39:58;;;;;;;8.13;5.50;;;18.10;99.90;;;;;;5094454;28;20483;-46
2023/01/26 04:42:24;;;;;;;7.53;5.13;;;18.00;99.90;;;;;;5094616;28;20031;-46
2023/01/26 04:44:51;;;;;;;9.18;6.70;;;18.00;99.90;;;;;;5094489;28;20051;-44
2023/01/26 04:47:17;;;;;;;7.28;5.35;;;18.00;99.90;;;;;;5094324;28;20017;-45
2023/01/26 04:49:43;;;;;;;7.82;5.18;;;18.00;99.90;;;;;;5094509;28;20078;-44
2023/01/26 04:52:09;;;;;;;8.52;5.78;;;18.00;99.90;;;;;;5094350;28;20020;-44
2023/01/26 04:54:35;;;;;;;7.20;5.03;;;18.00;99.90;;;;;;5094052;28;20035;-44
2023/01/26 04:57:01;;;;;;;7.43;5.32;;;18.00;99.90;;;;;;5094161;28;20021;-44
2023/01/26 04:59:27;;;;;;;8.00;5.57;;;18.00;99.90;;;;;;5094098;28;20092;-44
2023/01/26 05:01:52;;;;;;;7.25;5.45;;;18.00;99.90;;;;;;5094471;28;20024;-44
2023/01/26 05:04:18;;;;;;;7.80;5.38;;;18.00;99.90;;;;;;5093609;28;20392;-45
2023/01/26 05:06:44;;;;;;;8.45;5.82;;;17.90;99.90;;;;;;5094107;28;20031;-45
2023/01/26 05:09:10;;;;;;;7.28;5.35;;;17.90;99.90;;;;;;5092479;28;20049;-45
2023/01/26 05:11:36;;;;;;;7.10;5.35;;;17.90;99.90;;;;;;5093821;28;20032;-44
2023/01/26 05:14:02;;;;;;;7.68;5.57;;;17.90;99.90;;;;;;5093824;28;20353;-45
2023/01/26 05:16:27;;;;;;;6.63;4.38;;;17.90;99.90;;;;;;5093676;28;20032;-45
2023/01/26 05:18:53;;;;;;;7.30;5.55;;;17.90;99.90;;;;;;5092489;28;20032;-45
2023/01/26 05:21:21;;;;;;;7.32;4.90;;;17.90;99.90;;;;;;5093606;28;20066;-44
2023/01/26 05:23:47;;;;;;;6.10;5.45;;;17.90;99.90;;;;;;5093628;28;20016;-44
2023/01/26 05:26:12;;;;;;;8.05;5.32;;;17.90;99.90;;;;;;5092491;28;20127;-44
2023/01/26 05:28:38;;;;;;;7.03;4.80;;;17.90;99.90;;;;;;5092686;28;20066;-46
2023/01/26 05:31:04;;;;;;;8.43;5.03;;;17.90;99.90;;;;;;5093526;28;20387;-44
2023/01/26 05:33:30;;;;;;;7.22;5.05;;;17.90;99.90;;;;;;5093556;28;20024;-44
2023/01/26 05:35:56;;;;;;;6.93;4.88;;;17.80;99.90;;;;;;5093952;28;20016;-46
2023/01/26 05:38:21;;;;;;;7.80;5.50;;;17.80;99.90;;;;;;5093319;28;20020;-45
2023/01/26 05:40:47;;;;;;;7.07;4.90;;;17.80;99.90;;;;;;5093343;28;20028;-44
2023/01/26 05:43:13;;;;;;;9.52;5.43;;;17.80;99.90;;;;;;5093623;28;20066;-45
2023/01/26 05:45:39;;;;;;;6.47;4.45;;;17.80;99.90;;;;;;5093131;28;20102;-45
2023/01/26 05:48:05;;;;;;;7.78;5.25;;;17.80;99.90;;;;;;5093148;28;20091;-45
2023/01/26 05:50:31;;;;;;;8.25;5.20;;;17.80;99.90;;;;;;5093118;28;20020;-45
2023/01/26 05:52:59;;;;;;;7.10;5.22;;;17.80;99.90;;;;;;5091797;28;20149;-45
2023/01/26 05:55:25;;;;;;;9.68;5.10;;;17.80;99.90;;;;;;5093219;28;20107;-45
2023/01/26 05:57:51;;;;;;;7.25;4.95;;;17.80;99.90;;;;;;5093081;28;20150;-45
2023/01/26 06:00:17;;;;;;;8.35;5.05;;;17.80;99.90;;;;;;5093301;28;20099;-45
2023/01/26 06:02:43;;;;;;;7.35;4.65;;;17.70;99.90;;;;;;5093109;28;20024;-44
2023/01/26 06:05:09;;;;;;;8.27;5.57;;;17.70;99.90;;;;;;5092772;28;20063;-45
2023/01/26 06:07:35;;;;;;;13.63;5.53;;;17.80;99.90;;;;;;5092856;28;20024;-45
2023/01/26 06:10:01;;;;;;;9.07;5.28;;;17.80;99.90;;;;;;5092795;28;20050;-45
2023/01/26 06:12:34;;;;;;;7.53;4.97;;;17.80;99.90;;;;;;5092738;28;20027;-45
2023/01/26 06:15:01;;;;;;;6.63;5.03;;;17.70;99.90;;;;;;5091666;28;20387;-45
2023/01/26 06:17:27;;;;;;;9.13;4.38;;;17.70;99.90;;;;;;5092801;28;20434;-44
2023/01/26 06:19:52;;;;;;;7.20;4.38;;;17.70;99.90;;;;;;5091409;28;20028;-45
2023/01/26 06:22:18;;;;;;;8.70;4.70;;;17.70;99.90;;;;;;5092914;28;20095;-45
2023/01/26 06:24:45;;;;;;;8.93;4.95;;;17.70;99.90;;;;;;5092699;28;20039;-45
2023/01/26 06:27:14;;;;;;;8.57;4.70;;;17.70;99.90;;;;;;5092534;28;20095;-45
2023/01/26 06:29:41;;;;;;;7.50;4.68;;;17.70;99.90;;;;;;5092608;28;20110;-45
2023/01/26 06:32:09;;;;;;;5.57;3.90;;;17.70;99.90;;;;;;5092639;28;20026;-45
2023/01/26 06:34:35;;;;;;;9.02;4.63;;;17.70;99.90;;;;;;5092502;28;20024;-45
2023/01/26 06:37:01;;;;;;;9.10;4.65;;;17.70;99.90;;;;;;5092470;28;20367;-44
2023/01/26 06:39:27;;;;;;;6.60;4.68;;;17.70;99.90;;;;;;5092175;28;20042;-45
2023/01/26 06:41:52;;;;;;;9.10;5.47;;;17.70;99.90;;;;;;5092490;28;20095;-44
2023/01/26 06:44:18;;;;;;;6.97;4.53;;;17.70;99.90;;;;;;5092526;28;20032;-44
2023/01/26 06:46:44;;;;;;;6.80;4.93;;;17.70;99.90;;;;;;5091222;28;20028;-46
2023/01/26 06:49:10;;;;;;;6.90;5.28;;;17.60;99.90;;;;;;5092191;28;20020;-45
2023/01/26 06:51:46;;;;;;;8.48;5.13;;;17.60;99.90;;;;;;5090843;28;20052;-45
2023/01/26 06:54:13;;;;;;;8.02;4.75;;;17.60;99.90;;;;;;5092140;28;20012;-47
2023/01/26 06:56:39;;;;;;;7.57;5.22;;;17.60;99.90;;;;;;5091029;28;20396;-46
2023/01/26 06:59:05;;;;;;;7.05;4.72;;;17.60;99.90;;;;;;5090893;28;20027;-44
2023/01/26 07:01:38;;;;;;;7.18;4.45;;;17.60;99.90;;;;;;5092181;28;20380;-45
2023/01/26 07:04:04;;;;;;;6.15;4.47;;;17.60;99.90;;;;;;5091857;28;20051;-45
2023/01/26 07:06:30;;;;;;;10.18;5.25;;;17.60;99.90;;;;;;5092180;28;20421;-46
2023/01/26 07:08:55;;;;;;;7.93;5.13;;;17.60;99.90;;;;;;5092037;28;20016;-48
2023/01/26 07:11:22;;;;;;;8.07;5.15;;;17.60;99.90;;;;;;5092387;28;20024;-45
2023/01/26 07:13:49;;;;;;;9.55;4.95;;;17.60;99.90;;;;;;5091148;28;20093;-45
2023/01/26 07:16:16;;;;;;;7.40;4.72;;;17.60;99.90;;;;;;5091886;28;20081;-45
2023/01/26 07:18:42;;;;;;;9.80;5.07;;;17.60;99.90;;;;;;5090814;28;20936;-46
2023/01/26 07:21:12;;;;;;;7.03;4.82;;;17.60;99.90;;;;;;5091976;28;20078;-46
2023/01/26 07:23:38;;;;;;;7.85;5.10;;;17.50;99.90;;;;;;5090833;28;20054;-45
2023/01/26 07:26:05;;;;;;;12.90;6.68;;;17.50;99.90;;;;;;5090472;28;20048;-45
2023/01/26 07:28:33;;;;;;;7.45;5.10;;;17.50;99.90;;;;;;5091838;28;20020;-45
2023/01/26 07:31:00;;;;;;;8.65;4.90;;;17.50;99.90;;;;;;5091838;28;20124;-45
2023/01/26 07:33:27;;;;;;;7.63;4.72;;;17.60;99.90;;;;;;5091886;28;20027;-45
2023/01/26 07:35:54;;;;;;;10.20;6.55;;;17.50;99.90;;;;;;5091878;28;20030;-46
2023/01/26 07:38:19;;;;;;;8.45;5.15;;;17.50;99.90;;;;;;5092010;28;20103;-45
2023/01/26 07:40:45;;;;;;;9.00;5.47;;;17.50;99.90;;;;;;5091770;28;20120;-45
2023/01/26 07:43:13;;;;;;;7.80;5.60;;;17.50;99.90;;;;;;5090415;28;20024;-46
2023/01/26 07:45:39;;;;;;;;;;;17.50;99.90;;;;;;5092022;28;20036;-45
2023/01/26 07:48:05;;;;;;;9.25;5.10;;;17.50;99.90;;;;;;5091690;28;19911;-44
2023/01/26 07:50:31;;;;;;;7.95;5.43;;;17.50;99.90;;;;;;5091561;28;20044;-44
2023/01/26 07:52:59;;;;;;;8.30;5.38;;;17.50;99.90;;;;;;5094539;28;20058;-45
2023/01/26 07:55:25;;;;;;;11.35;6.65;;;17.50;99.90;;;;;;5095392;28;20031;-45
2023/01/26 07:57:51;;;;;;;8.52;5.63;;;17.50;99.90;;;;;;5095368;28;20020;-45
2023/01/26 08:00:18;;;;;;;8.77;5.85;;;17.50;99.90;;;;;;5095260;28;20020;-44
2023/01/26 08:02:48;;;;;;;7.90;5.63;;;17.60;99.90;;;;;;5095116;28;20103;-45
2023/01/26 08:05:13;;;;;;;8.35;6.00;;;17.60;99.90;;;;;;5094730;28;20051;-45
2023/01/26 08:07:39;;;;;;;11.80;6.28;;;17.60;99.90;;;;;;5095108;28;20074;-45
2023/01/26 08:10:06;;;;;;;10.55;6.25;;;17.60;99.90;;;;;;5095143;28;20492;-45
2023/01/26 08:12:34;;;;;;;8.30;5.80;;;17.70;99.90;;;;;;5094905;28;20039;-45
2023/01/26 08:15:00;;;;;;;9.02;6.28;;;17.70;99.90;;;;;;5094869;28;20024;-45
2023/01/26 08:17:28;;;;;;;8.65;5.97;;;17.70;99.90;;;;;;5094862;28;20472;-45
2023/01/26 08:19:54;;;;;;;8.90;5.63;;;17.70;99.90;;;;;;5095023;28;20027;-45
2023/01/26 08:22:20;;;;;;;8.70;6.45;;;17.80;99.90;;;;;;5094777;28;20162;-45
2023/01/26 08:24:45;;;;;;;10.02;6.68;;;17.90;99.90;;;;;;5094668;28;20036;-45
2023/01/26 08:27:11;;;;;;;10.15;6.40;;;17.90;99.90;;;;;;5094485;28;20031;-45
2023/01/26 08:29:37;;;;;;;9.73;6.13;;;17.90;99.90;;;;;;5094599;28;20376;-44
2023/01/26 08:32:03;;;;;;;11.98;6.32;;;17.90;99.90;;;;;;5093432;28;20074;-44
2023/01/26 08:34:29;;;;;;;12.93;6.05;;;18.00;99.90;;;;;;5094668;28;20480;-45
2023/01/26 08:36:54;;;;;;;11.50;6.20;;;18.00;99.90;;;;;;5094721;28;20156;-45
2023/01/26 08:39:20;;;;;;;7.75;5.68;;;18.00;99.90;;;;;;5094459;28;20484;-44
2023/01/26 08:41:46;;;;;;;10.82;6.38;;;18.10;99.90;;;;;;5094203;28;20536;-45
2023/01/26 08:44:12;;;;;;;10.20;6.65;;;18.10;99.90;;;;;;5075933;28;20024;-45
2023/01/26 08:46:38;;;;;;;9.38;6.88;;;18.20;99.90;;;;;;5094257;28;20024;-45
2023/01/26 08:49:03;;;;;;;9.80;6.20;;;18.20;99.90;;;;;;5094199;28;20102;-45
2023/01/26 08:51:29;;;;;;;9.82;6.85;;;18.20;99.90;;;;;;5094194;28;20036;-44
2023/01/26 08:53:55;;;;;;;8.65;6.10;;;18.30;99.90;;;;;;5092996;28;20551;-45
2023/01/26 08:56:21;;;;;;;14.20;8.70;;;18.30;99.90;;;;;;5092766;28;20032;-45
2023/01/26 08:58:47;;;;;;;13.20;8.48;;;18.40;99.90;;;;;;5092960;28;20480;-45
2023/01/26 09:01:15;;;;;;;12.20;8.20;;;18.40;99.90;;;;;;5094022;28;20490;-45
2023/01/26 09:03:42;;;;;;;12.65;8.30;;;18.40;99.90;;;;;;5093743;28;20044;-44
2023/01/26 09:06:10;;;;;;;16.15;9.13;;;18.40;99.90;;;;;;5094031;28;20039;-44
2023/01/26 09:08:35;;;;;;;13.38;9.35;;;18.50;99.90;;;;;;5092562;28;20059;-45
2023/01/26 09:11:03;;;;;;;14.23;9.65;;;18.50;99.90;;;;;;5093830;28;20056;-45
2023/01/26 09:13:29;;;;;;;18.98;11.65;;;18.60;99.90;;;;;;5093756;28;20024;-44
2023/01/26 09:15:55;;;;;;;17.17;11.52;;;18.60;99.90;;;;;;5093869;28;20032;-45
2023/01/26 09:18:21;;;;;;;13.98;10.40;;;18.70;99.90;;;;;;5093707;28;20020;-45
2023/01/26 09:20:46;;;;;;;16.17;11.45;;;18.70;99.90;;;;;;5093609;28;20072;-45
2023/01/26 09:23:15;;;;;;;17.80;12.05;;;18.70;99.90;;;;;;5093359;28;20028;-46
2023/01/26 09:25:40;;;;;;;17.90;12.30;;;18.70;99.90;;;;;;5093428;28;20039;-45
2023/01/26 09:28:06;;;;;;;18.73;13.23;;;18.80;99.90;;;;;;5093583;28;20024;-51
2023/01/26 09:30:32;;;;;;;19.80;13.60;;;18.80;99.90;;;;;;5093181;28;20020;-46
2023/01/26 09:32:59;;;;;;;20.02;13.98;;;18.90;99.90;;;;;;5093763;28;20089;-45
2023/01/26 09:35:26;;;;;;;21.98;13.88;;;18.90;99.90;;;;;;5093698;28;20056;-45
2023/01/26 09:37:52;;;;;;;20.27;12.80;;;18.90;99.90;;;;;;5089627;28;20020;-45
2023/01/26 09:40:49;;;;;;;18.40;12.95;;;18.90;99.90;;;;;;5093281;28;20054;-46
2023/01/26 09:43:41;;;;;;;23.15;14.27;;;18.90;99.90;;;;;;5060751;28;20115;-46
2023/01/26 09:46:19;;;;;;;18.92;13.32;;;19.00;99.90;;;;;;5081109;28;20491;-45
2023/01/26 09:48:53;;;;;;;20.75;13.90;;;19.10;99.90;;;;;;5082794;28;20028;-46
2023/01/26 09:51:47;;;;;;;24.05;13.57;;;19.10;99.90;;;;;;5081077;28;20028;-45
2023/01/26 09:54:49;;;;;;;21.20;14.07;;;19.10;99.90;;;;;;5076388;28;20044;-46
2023/01/26 09:57:23;;;;;;;26.45;14.27;;;19.20;99.90;;;;;;5082842;28;20541;-45
2023/01/26 10:00:08;;;;;;;25.75;14.48;;;19.20;99.90;;;;;;5082539;28;20025;-46
2023/01/26 10:02:44;;;;;;;17.98;11.30;;;19.20;99.90;;;;;;5072305;28;20029;-45
2023/01/26 10:05:30;;;;;;;21.30;13.68;;;19.30;99.90;;;;;;5072353;28;20476;-45
2023/01/26 10:07:56;;;;;;;25.70;14.13;;;19.30;99.90;;;;;;5080615;28;20020;-47
2023/01/26 10:10:43;;;;;;;21.23;13.20;;;19.40;99.90;;;;;;5082166;28;20024;-45
2023/01/26 10:13:14;;;;;;;22.52;13.85;;;19.40;99.90;;;;;;5071090;28;20145;-45
2023/01/26 10:15:43;;;;;;;21.23;14.02;;;19.50;99.90;;;;;;5071914;28;20116;-49
2023/01/26 10:18:52;;;;;;;20.38;14.27;;;19.50;99.90;;;;;;5091183;28;20028;-50
2023/01/26 10:21:24;;;;;;;19.20;13.52;;;19.60;99.90;;;;;;5069017;28;20036;-49
2023/01/26 10:23:51;;;;;;;25.85;13.68;;;19.70;99.90;;;;;;5086140;28;20093;-49
2023/01/26 10:26:22;;;;;;;35.33;18.33;;;19.70;99.90;;;;;;5091312;28;20094;-49
2023/01/26 10:28:51;;;;;;;32.60;15.25;;;19.70;99.90;;;;;;5092307;28;20101;-50
2023/01/26 10:31:22;;;;;;;35.72;16.00;;;19.80;99.90;;;;;;5091106;28;20034;-50
2023/01/26 10:33:54;;;;;;;25.67;15.60;;;19.80;99.90;;;;;;5092451;28;20044;-50
2023/01/26 10:36:20;;;;;;;28.33;14.75;;;19.90;99.90;;;;;;5092449;28;20380;-50
2023/01/26 10:38:46;;;;;;;21.85;14.50;;;20.00;99.90;;;;;;5092312;28;20031;-50
2023/01/26 10:41:18;;;;;;;23.03;14.30;;;20.00;99.90;;;;;;5092446;28;20024;-50
2023/01/26 10:44:02;;;;;;;25.08;14.20;;;20.00;99.90;;;;;;5092140;28;20309;-50
2023/01/26 10:46:30;;;;;;;27.08;13.90;;;20.10;99.90;;;;;;5091068;28;20031;-50
2023/01/26 10:48:57;;;;;;;;;;;20.20;99.90;;;;;;5092671;28;20144;-49
2023/01/26 10:51:33;;;;;;;23.55;15.32;;;20.20;99.90;;;;;;5092166;28;20026;-49
2023/01/26 10:54:25;;;;;;;22.65;14.75;;;20.30;99.90;;;;;;5090952;28;20024;-49
2023/01/26 10:56:54;;;;;;;25.40;13.50;;;20.30;99.90;;;;;;5092018;28;20028;-49
2023/01/26 10:59:50;;;;;;;21.83;13.88;;;20.40;99.90;;;;;;5091906;28;20030;-50
2023/01/26 11:02:19;;;;;;;24.83;14.13;;;20.40;99.90;;;;;;5077135;28;20105;-49
2023/01/26 11:05:07;;;;;;;19.10;12.68;;;20.50;99.90;;;;;;5090466;28;20292;-49
2023/01/26 11:07:38;;;;;;;22.80;12.88;;;20.50;99.90;;;;;;5091956;28;20104;-49
2023/01/26 11:10:24;;;;;;;21.88;13.00;;;20.60;99.90;;;;;;5090988;28;20035;-49
2023/01/26 11:12:55;;;;;;;23.30;13.88;;;20.60;99.90;;;;;;5091920;28;20050;-50
2023/01/26 11:15:23;;;;;;;21.27;12.73;;;20.60;99.90;;;;;;5091969;28;20032;-49
2023/01/26 11:17:56;;;;;;;18.42;12.68;;;20.70;99.90;;;;;;5091838;28;20044;-49
2023/01/26 11:21:00;;;;;;;20.35;12.13;;;20.70;99.90;;;;;;5091939;28;20341;-50
2023/01/26 11:23:56;;;;;;;20.55;12.88;;;20.70;99.90;;;;;;5049535;28;20064;-49
2023/01/26 11:26:22;;;;;;;18.33;12.73;;;20.80;99.90;;;;;;5081708;28;20048;-50
2023/01/26 11:29:12;;;;;;;19.42;13.70;;;20.80;99.90;;;;;;5095827;28;20031;-50
2023/01/26 11:31:43;;;;;;;23.48;12.70;;;20.80;99.90;;;;;;5095939;28;20024;-50
2023/01/26 11:34:24;;;;;;;18.30;11.52;;;20.80;99.90;;;;;;5095724;28;20495;-51
2023/01/26 11:37:02;;;;;;;21.77;11.38;;;20.90;99.90;;;;;;5095679;28;20037;-50
2023/01/26 11:39:33;;;;;;;24.30;12.65;;;20.90;99.90;;;;;;5095587;28;20035;-50
2023/01/26 11:42:13;;;;;;;19.13;11.70;;;20.90;99.90;;;;;;5095339;28;20066;-50
2023/01/26 11:44:57;;;;;;;22.08;11.52;;;21.00;99.90;;;;;;5095409;28;20040;-54
2023/01/26 11:47:41;;;;;;;23.98;10.60;;;21.00;99.90;;;;;;5095358;28;20028;-52
2023/01/26 11:50:25;;;;;;;29.08;12.48;;;21.00;99.90;;;;;;5095431;28;20024;-54
2023/01/26 11:53:29;;;;;;;25.52;8.70;;;21.00;99.90;;;;;;5086089;28;20479;-50
2023/01/26 11:56:19;;;;;;;23.30;9.68;;;21.00;99.90;;;;;;5093734;28;20024;-49
2023/01/26 11:59:26;;;;;;;40.67;9.95;;;21.10;99.90;;;;;;5095250;28;20020;-49
2023/01/26 12:02:25;;;;;;;27.73;9.75;;;21.10;99.90;;;;;;5028474;28;20026;-50
2023/01/26 12:04:54;;;;;;;32.83;11.27;;;21.10;99.90;;;;;;5015580;28;20045;-50
2023/01/26 12:07:51;;;;;;;34.20;10.75;;;21.10;99.90;;;;;;5062733;28;20040;-49
2023/01/26 12:10:39;;;;;;;31.67;9.85;;;21.10;99.90;;;;;;5081265;28;20027;-48
2023/01/26 12:13:38;;;;;;;30.45;9.05;;;21.10;99.90;;;;;;5087730;28;20059;-49
2023/01/26 12:16:22;;;;;;;27.80;10.30;;;21.10;99.90;;;;;;5077322;28;20028;-48
2023/01/26 12:18:58;;;;;;;30.77;10.68;;;21.10;99.90;;;;;;5094290;28;20028;-48
2023/01/26 12:21:25;;;;;;;24.85;8.80;;;21.20;99.90;;;;;;5094719;28;20099;-49
2023/01/26 12:24:01;;;;;;;25.45;8.13;;;21.20;99.90;;;;;;5094793;28;20026;-49
2023/01/26 12:26:35;;;;;;;26.30;9.02;;;21.20;99.90;;;;;;5094657;28;20024;-50
2023/01/26 12:29:10;;;;;;;26.67;8.50;;;21.20;99.90;;;;;;5093977;28;20028;-48
2023/01/26 12:31:40;;;;;;;25.15;9.35;;;21.20;99.90;;;;;;5094715;28;20103;-50
2023/01/26 12:34:12;;;;;;;29.75;9.18;;;21.20;99.90;;;;;;5094640;28;20494;-49
2023/01/26 12:36:43;;;;;;;20.63;9.27;;;21.20;99.90;;;;;;5094873;28;20023;-50
2023/01/26 12:39:20;;;;;;;22.65;9.07;;;21.20;99.90;;;;;;5093953;28;20028;-50
2023/01/26 12:42:23;;;;;;;14.57;8.17;;;21.30;99.90;;;;;;5093930;28;20020;-49
2023/01/26 12:44:54;;;;;;;20.05;9.07;;;21.30;99.90;;;;;;5093948;28;20127;-49
2023/01/26 12:47:34;;;;;;;16.70;8.65;;;21.20;99.90;;;;;;5094299;28;20063;-49
2023/01/26 12:50:21;;;;;;;19.05;7.65;;;21.30;99.90;;;;;;5094106;28;20476;-48
2023/01/26 12:53:01;;;;;;;17.98;7.80;;;21.20;99.90;;;;;;5093712;28;20024;-49
2023/01/26 12:55:50;;;;;;;23.88;9.13;;;21.30;99.90;;;;;;5092962;28;20028;-49
2023/01/26 12:58:38;;;;;;;16.83;7.85;;;21.30;99.90;;;;;;5086714;28;20036;-51
2023/01/26 13:01:14;;;;;;;17.80;7.45;;;21.30;99.90;;;;;;5093858;28;20095;-50
2023/01/26 13:03:50;;;;;;;15.93;6.88;;;21.20;99.90;;;;;;5094045;28;20044;-49
2023/01/26 13:06:20;;;;;;;13.75;7.40;;;21.30;99.90;;;;;;5094141;28;20117;-50
2023/01/26 13:09:24;;;;;;;33.30;10.23;;;21.30;99.90;;;;;;5093605;28;20024;-50
2023/01/26 13:11:50;;;;;;;22.30;8.95;;;21.30;99.90;;;;;;5083419;28;20478;-50
2023/01/26 13:14:58;;;;;;;18.98;8.23;;;21.30;99.90;;;;;;5091741;28;20028;-49
2023/01/26 13:17:26;;;;;;;20.63;7.30;;;21.30;99.90;;;;;;5092115;28;20022;-51
2023/01/26 13:19:58;;;;;;;16.92;8.50;;;21.30;99.90;;;;;;5090402;28;20016;-49
2023/01/26 13:22:24;;;;;;;19.50;8.50;;;21.20;99.90;;;;;;5092782;28;20102;-49
2023/01/26 13:24:55;;;;;;;16.08;8.00;;;21.20;99.90;;;;;;5092150;28;20480;-49
2023/01/26 13:27:44;;;;;;;15.30;7.82;;;21.20;99.90;;;;;;5092562;28;20016;-49
2023/01/26 13:30:22;;;;;;;20.13;7.50;;;21.30;99.90;;;;;;5092520;28;20043;-49
2023/01/26 13:32:48;;;;;;;18.50;9.20;;;21.30;99.90;;;;;;5093445;28;20035;-51
2023/01/26 13:35:17;;;;;;;23.77;9.05;;;21.30;99.90;;;;;;5093442;28;20016;-51
2023/01/26 13:37:52;;;;;;;21.05;8.32;;;21.30;99.90;;;;;;5093296;28;20034;-54
2023/01/26 13:40:30;;;;;;;15.95;9.43;;;21.20;99.90;;;;;;5093303;28;20016;-51